createdAt,value
2019-04-22T00:02:17.505Z,63.59
2019-04-22T00:05:01.004Z,64.22
2019-04-22T00:07:41.975Z,64.65
2019-04-22T00:10:20.852Z,64.70
2019-04-22T00:12:49.992Z,65.46
2019-04-22T00:15:09.778Z,65.00
2019-04-22T00:17:55.095Z,65.43
2019-04-22T00:20:35.471Z,65.38
2019-04-22T00:22:52.568Z,65.24
2019-04-22T00:27:56.467Z,65.64
2019-04-22T00:30:36.043Z,64.97
2019-04-22T00:33:01.409Z,65.09
2019-04-22T00:35:31.819Z,64.99
2019-04-22T00:38:03.469Z,65.21
2019-04-22T00:40:38.413Z,67.10
2019-04-22T00:43:10.061Z,67.09
2019-04-22T00:45:38.720Z,66.49
2019-04-22T00:48:12.500Z,66.16
2019-04-22T00:50:40.225Z,66.23
2019-04-22T00:53:09.900Z,66.15
2019-04-22T00:56:00.534Z,66.46
2019-04-22T00:58:39.457Z,67.06
2019-04-22T01:01:07.867Z,67.89
2019-04-22T01:03:44.194Z,67.96
2019-04-22T01:06:12.284Z,68.21
2019-04-22T01:08:46.878Z,68.37
2019-04-22T01:11:13.449Z,69.08
2019-04-22T01:13:39.743Z,68.40
2019-04-22T01:16:15.322Z,68.64
2019-04-22T01:18:42.306Z,69.63
2019-04-22T01:21:24.391Z,70.01
2019-04-22T01:23:44.190Z,70.23
2019-04-22T01:26:11.297Z,69.26
2019-04-22T01:28:39.550Z,69.23
2019-04-22T01:31:04.730Z,70.11
2019-04-22T01:33:35.296Z,69.31
2019-04-22T01:36:21.420Z,69.30
2019-04-22T01:38:53.229Z,68.94
2019-04-22T01:41:32.437Z,69.29
2019-04-22T01:44:08.293Z,69.97
2019-04-22T01:46:33.047Z,70.26
2019-04-22T01:49:02.679Z,69.86
2019-04-22T01:51:50.024Z,69.76
2019-04-22T01:54:03.946Z,68.86
2019-04-22T01:56:33.349Z,68.67
2019-04-22T01:58:59.202Z,68.97
2019-04-22T02:01:37.420Z,69.36
2019-04-22T02:04:08.795Z,69.38
2019-04-22T02:06:43.605Z,69.73
2019-04-22T02:09:21.148Z,70.65
2019-04-22T02:11:46.560Z,70.58
2019-04-22T02:14:13.276Z,70.89
2019-04-22T02:16:41.262Z,70.70
2019-04-22T02:19:19.062Z,71.34
2019-04-22T02:21:42.866Z,70.98
2019-04-22T02:24:18.064Z,70.51
2019-04-22T02:26:58.211Z,69.87
2019-04-22T02:29:16.393Z,69.63
2019-04-22T02:31:51.052Z,69.25
2019-04-22T02:34:22.330Z,69.22
2019-04-22T02:36:50.881Z,70.43
2019-04-22T02:41:54.824Z,71.56
2019-04-22T02:51:52.574Z,73.01
2019-04-22T02:54:41.839Z,72.73
2019-04-22T02:57:03.206Z,73.38
2019-04-22T02:59:32.544Z,73.49
2019-04-22T03:02:23.452Z,72.57
2019-04-22T03:04:28.371Z,73.03
2019-04-22T03:06:55.602Z,73.30
2019-04-22T03:17:25.524Z,72.56
2019-04-22T03:19:59.201Z,73.12
2019-04-22T03:27:21.923Z,73.43
2019-04-22T03:33:06.494Z,73.27
2019-04-22T03:35:33.181Z,73.90
2019-04-22T03:37:49.223Z,73.95
2019-04-22T03:42:52.193Z,73.45
2019-04-22T03:52:50.191Z,72.90
2019-04-22T03:55:18.098Z,73.51
2019-04-22T03:57:50.062Z,73.17
2019-04-22T04:00:26.524Z,73.00
2019-04-22T04:02:53.893Z,73.88
2019-04-22T04:05:33.943Z,73.98
2019-04-22T04:07:55.205Z,73.67
2019-04-22T04:10:37.754Z,73.96
2019-04-22T04:12:56.541Z,75.30
2019-04-22T04:15:28.389Z,75.42
2019-04-22T04:20:28.745Z,76.22
2019-04-22T04:28:24.271Z,76.70
2019-04-22T04:30:36.136Z,75.61
2019-04-22T04:50:38.533Z,73.48
2019-04-22T04:53:12.445Z,73.38
2019-04-22T04:55:42.673Z,73.57
2019-04-22T04:58:25.188Z,74.02
2019-04-22T05:03:20.592Z,73.49
2019-04-22T05:05:47.588Z,74.32
2019-04-22T05:08:29.340Z,74.89
2019-04-22T05:13:39.383Z,75.05
2019-04-22T05:16:03.167Z,73.79
2019-04-22T05:23:25.516Z,72.61
2019-04-22T05:25:54.537Z,73.35
2019-04-22T05:28:17.848Z,73.62
2019-04-22T05:30:45.725Z,75.37
2019-04-22T05:33:21.438Z,73.68
2019-04-22T05:35:54.793Z,77.22
2019-04-22T05:38:30.236Z,74.20
2019-04-22T05:41:00.532Z,72.21
2019-04-22T05:43:21.604Z,68.88
2019-04-22T05:45:58.926Z,62.27
2019-04-22T05:48:34.970Z,64.41
2019-04-22T05:50:57.687Z,65.06
2019-04-22T05:53:25.965Z,65.36
2019-04-22T05:56:07.800Z,64.90
2019-04-22T05:58:41.499Z,63.86
2019-04-22T06:03:47.895Z,60.00
2019-04-22T06:06:15.096Z,56.26
2019-04-22T06:08:48.567Z,52.49
2019-04-22T06:11:24.442Z,50.22
2019-04-22T06:13:38.958Z,48.90
2019-04-22T06:16:23.654Z,47.12
2019-04-22T06:18:56.836Z,46.56
2019-04-22T06:21:31.196Z,45.58
2019-04-22T06:29:01.390Z,43.85
2019-04-22T06:31:32.747Z,43.10
2019-04-22T06:34:02.566Z,42.75
2019-04-22T06:39:03.874Z,42.07
2019-04-22T06:41:34.889Z,41.44
2019-04-22T06:44:04.376Z,40.73
2019-04-22T06:46:38.458Z,40.77
2019-04-22T06:49:11.108Z,40.86
2019-04-22T06:51:40.204Z,40.02
2019-04-22T06:54:07.653Z,39.13
2019-04-22T06:56:35.306Z,39.17
2019-04-22T06:59:11.629Z,38.69
2019-04-22T07:01:59.309Z,38.25
2019-04-22T07:04:09.292Z,37.97
2019-04-22T07:11:48.267Z,37.49
2019-04-22T07:14:09.273Z,36.53
2019-04-22T07:16:43.262Z,36.92
2019-04-22T07:19:18.074Z,35.71
2019-04-22T07:21:44.129Z,35.53
2019-04-22T07:26:54.553Z,34.88
2019-04-22T07:29:20.619Z,35.05
2019-04-22T07:31:55.686Z,34.63
2019-04-22T07:34:28.372Z,35.11
2019-04-22T07:37:02.981Z,34.76
2019-04-22T07:39:23.131Z,35.05
2019-04-22T07:41:59.168Z,34.05
2019-04-22T07:47:07.788Z,33.28
2019-04-22T07:49:35.002Z,32.70
2019-04-22T07:51:55.839Z,32.94
2019-04-22T07:54:39.719Z,32.66
2019-04-22T07:57:11.700Z,33.07
2019-04-22T07:59:35.298Z,32.28
2019-04-22T08:02:02.145Z,32.31
2019-04-22T08:04:56.014Z,32.06
2019-04-22T08:07:12.401Z,32.39
2019-04-22T08:09:44.560Z,31.52
2019-04-22T08:12:02.923Z,31.52
2019-04-22T08:14:40.912Z,30.54
2019-04-22T08:17:30.864Z,30.62
2019-04-22T08:19:42.025Z,30.91
2019-04-22T08:22:11.873Z,30.99
2019-04-22T08:24:51.295Z,29.93
2019-04-22T08:27:11.948Z,30.99
2019-04-22T08:29:52.376Z,31.04
2019-04-22T08:32:14.578Z,30.19
2019-04-22T08:34:43.610Z,30.16
2019-04-22T08:37:41.467Z,29.92
2019-04-22T08:39:49.998Z,29.37
2019-04-22T08:42:27.080Z,29.80
2019-04-22T08:45:09.418Z,29.49
2019-04-22T08:47:29.102Z,29.81
2019-04-22T08:49:56.903Z,29.78
2019-04-22T08:55:01.882Z,29.49
2019-04-22T08:57:40.806Z,30.08
2019-04-22T08:59:57.444Z,28.96
2019-04-22T09:04:53.738Z,28.45
2019-04-22T09:12:46.715Z,28.30
2019-04-22T09:14:57.820Z,27.91
2019-04-22T09:17:47.886Z,27.50
2019-04-22T09:20:04.663Z,27.63
2019-04-22T09:22:33.280Z,26.48
2019-04-22T09:25:03.726Z,25.79
2019-04-22T09:27:38.287Z,26.80
2019-04-22T09:30:10.317Z,26.86
2019-04-22T09:32:38.678Z,26.67
2019-04-22T09:35:25.412Z,26.08
2019-04-22T09:37:50.305Z,26.48
2019-04-22T09:40:22.440Z,25.24
2019-04-22T09:42:43.726Z,25.11
2019-04-22T09:45:13.063Z,25.79
2019-04-22T09:47:55.295Z,24.82
2019-04-22T09:50:15.060Z,23.98
2019-04-22T09:52:51.625Z,24.46
2019-04-22T09:55:19.742Z,24.62
2019-04-22T09:57:46.050Z,24.53
2019-04-22T10:00:13.834Z,24.06
2019-04-22T10:02:59.217Z,24.30
2019-04-22T10:05:21.107Z,23.67
2019-04-22T10:07:54.407Z,23.60
2019-04-22T10:10:20.495Z,22.76
2019-04-22T10:13:12.316Z,22.54
2019-04-22T10:15:26.729Z,22.34
2019-04-22T10:17:58.047Z,22.74
2019-04-22T10:20:26.953Z,23.08
2019-04-22T10:22:58.769Z,22.24
2019-04-22T10:25:29.856Z,22.34
2019-04-22T10:28:01.840Z,22.35
2019-04-22T10:30:39.180Z,23.10
2019-04-22T10:33:02.046Z,22.35
2019-04-22T10:35:17.139Z,22.25
2019-04-22T10:37:42.816Z,22.11
2019-04-22T10:40:28.060Z,22.63
2019-04-22T10:42:57.252Z,21.41
2019-04-22T10:45:27.991Z,21.72
2019-04-22T10:47:58.367Z,21.44
2019-04-22T10:50:39.426Z,21.55
2019-04-22T10:53:11.118Z,21.52
2019-04-22T10:55:43.460Z,21.54
2019-04-22T10:58:12.833Z,21.44
2019-04-22T11:00:42.921Z,23.04
2019-04-22T11:03:14.036Z,22.32
2019-04-22T11:05:44.300Z,22.45
2019-04-22T11:08:22.539Z,22.89
2019-04-22T11:11:03.604Z,23.12
2019-04-22T11:13:15.925Z,23.20
2019-04-22T11:15:46.643Z,23.40
2019-04-22T11:18:17.702Z,23.28
2019-04-22T11:20:49.537Z,22.91
2019-04-22T11:23:18.963Z,23.94
2019-04-22T11:25:48.136Z,22.34
2019-04-22T11:28:17.968Z,21.68
2019-04-22T11:30:48.223Z,21.47
2019-04-22T11:33:18.406Z,20.49
2019-04-22T11:35:48.026Z,21.68
2019-04-22T11:38:17.404Z,22.18
2019-04-22T11:40:51.744Z,22.32
2019-04-22T11:43:17.488Z,22.67
2019-04-22T11:45:47.137Z,22.17
2019-04-22T11:48:17.619Z,22.95
2019-04-22T11:50:48.109Z,22.27
2019-04-22T11:53:18.639Z,22.09
2019-04-22T11:55:49.046Z,20.11
2019-04-22T11:58:21.162Z,19.61
2019-04-22T12:00:50.114Z,20.17
2019-04-22T12:03:21.043Z,19.86
2019-04-22T12:05:50.358Z,19.57
2019-04-22T12:08:20.811Z,19.82
2019-04-22T12:10:54.854Z,20.73
2019-04-22T12:13:21.863Z,20.12
2019-04-22T12:15:51.277Z,20.18
2019-04-22T12:18:22.877Z,18.48
2019-04-22T12:20:53.094Z,19.24
2019-04-22T12:23:23.145Z,21.16
2019-04-22T12:26:01.288Z,20.11
2019-04-22T12:28:23.320Z,19.58
2019-04-22T12:30:53.519Z,18.35
2019-04-22T12:33:23.481Z,18.57
2019-04-22T12:35:52.877Z,18.76
2019-04-22T12:38:22.248Z,19.15
2019-04-22T12:40:58.519Z,19.01
2019-04-22T12:43:24.574Z,19.27
2019-04-22T12:45:54.292Z,19.57
2019-04-22T12:48:23.583Z,19.81
2019-04-22T12:50:56.250Z,19.86
2019-04-22T12:53:27.489Z,19.62
2019-04-22T12:55:55.476Z,19.54
2019-04-22T12:58:25.655Z,19.10
2019-04-22T13:00:54.859Z,19.75
2019-04-22T13:03:24.492Z,19.59
2019-04-22T13:05:53.995Z,20.23
2019-04-22T13:08:23.560Z,20.75
2019-04-22T13:10:59.366Z,21.53
2019-04-22T13:13:25.102Z,21.70
2019-04-22T13:15:55.045Z,21.73
2019-04-22T13:18:35.476Z,21.54
2019-04-22T13:20:56.671Z,21.73
2019-04-22T13:23:27.549Z,21.73
2019-04-22T13:25:56.827Z,21.25
2019-04-22T13:28:27.219Z,21.02
2019-04-22T13:30:58.501Z,20.75
2019-04-22T13:33:28.686Z,20.23
2019-04-22T13:35:59.326Z,20.77
2019-04-22T13:38:29.131Z,20.89
2019-04-22T13:41:14.046Z,20.02
2019-04-22T13:43:29.203Z,18.77
2019-04-22T13:45:58.504Z,18.42
2019-04-22T13:48:47.053Z,18.52
2019-04-22T13:51:32.433Z,18.41
2019-04-22T13:54:30.087Z,17.83
2019-04-22T13:56:19.470Z,18.02
2019-04-22T13:58:44.736Z,18.40
2019-04-22T14:01:06.966Z,18.34
2019-04-22T14:03:54.553Z,19.40
2019-04-22T14:06:25.063Z,18.96
2019-04-22T14:08:55.674Z,19.49
2019-04-22T14:11:34.445Z,19.45
2019-04-22T14:13:56.734Z,19.30
2019-04-22T14:16:27.017Z,19.68
2019-04-22T14:18:56.229Z,20.72
2019-04-22T14:21:25.419Z,20.75
2019-04-22T14:23:56.356Z,20.88
2019-04-22T14:26:27.085Z,21.55
2019-04-22T14:28:57.535Z,21.83
2019-04-22T14:31:26.892Z,21.97
2019-04-22T14:34:01.032Z,22.12
2019-04-22T14:36:27.551Z,21.45
2019-04-22T14:38:57.781Z,21.53
2019-04-22T14:41:40.321Z,21.09
2019-04-22T14:44:56.642Z,20.50
2019-04-22T14:46:58.673Z,20.02
2019-04-22T14:49:24.078Z,19.89
2019-04-22T14:52:02.068Z,19.99
2019-04-22T14:54:19.453Z,19.89
2019-04-22T14:56:34.144Z,19.86
2019-04-22T14:59:04.996Z,19.46
2019-04-22T15:01:35.303Z,19.72
2019-04-22T15:04:05.492Z,19.94
2019-04-22T15:06:36.107Z,19.82
2019-04-22T15:09:08.023Z,20.14
2019-04-22T15:11:52.563Z,20.43
2019-04-22T15:14:09.642Z,20.31
2019-04-22T15:16:57.168Z,20.48
2019-04-22T15:19:38.002Z,20.50
2019-04-22T15:22:08.445Z,20.93
2019-04-22T15:24:38.783Z,20.41
2019-04-22T15:27:08.756Z,20.52
2019-04-22T15:29:39.071Z,21.02
2019-04-22T15:32:09.348Z,21.15
2019-04-22T15:34:39.526Z,21.41
2019-04-22T15:37:08.929Z,21.61
2019-04-22T15:39:39.445Z,21.75
2019-04-22T15:42:14.586Z,21.70
2019-04-22T15:44:40.023Z,20.94
2019-04-22T15:47:09.353Z,21.39
2019-04-22T15:49:39.987Z,21.79
2019-04-22T15:52:10.419Z,21.61
2019-04-22T15:54:39.788Z,21.79
2019-04-22T15:57:08.992Z,21.75
2019-04-22T15:59:53.785Z,22.18
2019-04-22T16:02:10.048Z,21.98
2019-04-22T16:04:41.143Z,21.61
2019-04-22T16:07:10.893Z,21.86
2019-04-22T16:09:41.621Z,21.77
2019-04-22T16:12:19.430Z,22.32
2019-04-22T16:14:47.360Z,22.24
2019-04-22T16:17:12.850Z,22.27
2019-04-22T16:19:43.273Z,22.12
2019-04-22T16:22:18.266Z,22.04
2019-04-22T16:24:56.270Z,21.68
2019-04-22T16:27:26.868Z,21.35
2019-04-22T16:29:57.181Z,21.29
2019-04-22T22:39:07.546Z,35.44
2019-04-22T22:41:27.933Z,35.36
2019-04-22T22:44:06.959Z,35.44
2019-04-22T22:46:37.398Z,35.42
2019-04-22T22:49:23.348Z,35.52
2019-04-22T22:51:57.607Z,35.55
2019-04-22T22:54:26.956Z,35.51
2019-04-22T22:57:01.968Z,35.69
2019-04-22T22:59:27.655Z,35.66
2019-04-22T23:01:54.579Z,35.86
2019-04-22T23:04:32.958Z,35.78
2019-04-22T23:07:09.355Z,35.82
2019-04-22T23:09:33.415Z,35.98
2019-04-22T23:14:32.706Z,36.14
2019-04-22T23:16:52.903Z,36.26
2019-04-22T23:19:15.488Z,36.30
2019-04-22T23:21:49.475Z,36.48
2019-04-22T23:24:48.187Z,36.46
2019-04-22T23:27:26.220Z,36.55
2019-04-22T23:30:15.938Z,36.79
2019-04-22T23:32:58.120Z,36.93
2019-04-22T23:35:49.388Z,37.02
2019-04-22T23:38:20.620Z,37.27
2019-04-22T23:40:55.564Z,37.38
2019-04-22T23:43:34.296Z,37.49
2019-04-22T23:46:02.396Z,37.73
2019-04-22T23:48:27.211Z,37.68
2019-04-22T23:51:04.453Z,38.00
2019-04-22T23:53:57.973Z,38.11
2019-04-22T23:56:06.097Z,38.41
